Time;durP1;ratioP1;P1;durP2;ratioP2;P2;SDS_P1;SDS_P2;PMS_P1;PMS_P2;Temp;Humidity;BMP_temperature;BMP_pressure;BME280_temperature;BME280_humidity;BME280_pressure;Samples;Min_cycle;Max_cycle;Signal;HPM_P1;HPM_P2
2022/01/20 00:00:21;;;;;;;17.92;3.20;;;;;;;;;;2395389;56;21021;-77
2022/01/20 00:02:55;;;;;;;12.73;2.70;;;;;;;;;;2395724;56;21254;-77
2022/01/20 00:05:37;;;;;;;10.80;2.47;;;;;;;;;;2395522;56;21046;-77
2022/01/20 00:08:34;;;;;;;11.60;2.42;;;;;;;;;;2653994;52;21133;-77
2022/01/20 00:27:37;;;;;;;9.38;2.12;;;;;;;;;;2395730;56;20970;-76
2022/01/20 00:30:31;;;;;;;15.90;2.95;;;;;;;;;;2395285;56;21120;-77
2022/01/20 00:33:13;;;;;;;22.40;2.55;;;;;;;;;;2396399;56;21133;-77
2022/01/20 00:38:27;;;;;;;20.05;3.12;;;;;;;;;;2395179;56;21094;-77
2022/01/20 00:40:55;;;;;;;13.10;3.12;;;;;;;;;;2395555;56;21038;-76
2022/01/20 00:43:23;;;;;;;16.25;2.90;;;;;;;;;;2395321;56;21085;-76
2022/01/20 00:45:50;;;;;;;20.10;4.12;;;;;;;;;;2395886;56;21030;-76
2022/01/20 00:48:17;;;;;;;29.85;6.10;;;;;;;;;;2395705;56;21081;-76
2022/01/20 00:50:44;;;;;;;18.95;4.85;;;;;;;;;;2395633;56;21590;-76
2022/01/20 00:53:12;;;;;;;14.00;2.87;;;;;;;;;;2395787;56;21096;-77
2022/01/20 00:55:39;;;;;;;24.98;4.12;;;;;;;;;;2396297;56;21141;-77
2022/01/20 00:58:07;;;;;;;30.65;4.43;;;;;;;;;;2395543;56;21034;-76
2022/01/20 01:00:34;;;;;;;25.60;4.68;;;;;;;;;;2395521;56;21110;-76
2022/01/20 01:03:01;;;;;;;20.05;2.97;;;;;;;;;;2395986;56;21034;-76
2022/01/20 01:05:28;;;;;;;20.85;4.00;;;;;;;;;;2654495;52;21110;-76
2022/01/20 01:07:56;;;;;;;23.80;3.50;;;;;;;;;;2395715;56;21025;-77
2022/01/20 01:10:26;;;;;;;21.73;3.33;;;;;;;;;;2395161;56;21125;-76
2022/01/20 01:12:58;;;;;;;23.23;3.67;;;;;;;;;;2395827;56;21058;-77
2022/01/20 01:15:29;;;;;;;22.08;3.65;;;;;;;;;;2654019;52;21156;-76
2022/01/20 01:23:30;;;;;;;19.33;3.22;;;;;;;;;;2395500;56;21037;-76
2022/01/20 01:25:57;;;;;;;25.10;3.40;;;;;;;;;;2395950;56;21038;-76
2022/01/20 01:28:27;;;;;;;21.50;3.40;;;;;;;;;;2395790;56;21058;-76
2022/01/20 01:31:22;;;;;;;21.87;3.47;;;;;;;;;;2395280;56;21080;-76
2022/01/20 01:33:54;;;;;;;17.10;3.12;;;;;;;;;;2395934;56;21097;-77
2022/01/20 01:36:23;;;;;;;17.62;3.17;;;;;;;;;;2653833;52;21606;-77
2022/01/20 01:38:50;;;;;;;10.38;2.25;;;;;;;;;;2653287;52;21054;-79
2022/01/20 01:41:26;;;;;;;12.32;1.80;;;;;;;;;;2653837;51;21026;-77
2022/01/20 01:43:54;;;;;;;9.40;2.10;;;;;;;;;;2395861;56;21037;-77
2022/01/20 01:46:21;;;;;;;4.43;1.60;;;;;;;;;;2654635;52;21117;-79
2022/01/20 01:48:49;;;;;;;7.87;1.90;;;;;;;;;;2395833;56;21160;-78
2022/01/20 01:51:16;;;;;;;8.27;1.75;;;;;;;;;;2654674;52;21026;-80
2022/01/20 01:53:43;;;;;;;4.95;1.33;;;;;;;;;;2394385;56;21594;-78
2022/01/20 01:56:10;;;;;;;5.60;1.58;;;;;;;;;;2396042;56;21093;-77
2022/01/20 01:58:38;;;;;;;10.00;1.77;;;;;;;;;;2654604;52;21054;-77
2022/01/20 02:01:05;;;;;;;12.68;2.03;;;;;;;;;;2395593;56;21045;-78
2022/01/20 02:03:41;;;;;;;10.55;1.80;;;;;;;;;;2396379;56;21183;-78
2022/01/20 02:06:25;;;;;;;11.68;1.85;;;;;;;;;;2395995;56;21058;-78
2022/01/20 02:08:59;;;;;;;10.90;1.80;;;;;;;;;;2395951;56;21073;-78
2022/01/20 02:19:44;;;;;;;6.65;1.98;;;;;;;;;;2396045;56;20986;-78
2022/01/20 02:22:12;;;;;;;10.55;2.22;;;;;;;;;;2654513;52;21101;-78
2022/01/20 02:24:39;;;;;;;15.13;2.75;;;;;;;;;;2396266;56;21177;-78
2022/01/20 02:27:06;;;;;;;8.50;2.60;;;;;;;;;;2395999;56;21045;-77
2022/01/20 02:29:33;;;;;;;15.65;2.95;;;;;;;;;;2395936;56;21105;-77
2022/01/20 02:32:01;;;;;;;11.85;3.00;;;;;;;;;;2654835;52;21118;-78
2022/01/20 02:34:30;;;;;;;15.13;2.87;;;;;;;;;;2396286;56;21037;-78
2022/01/20 02:36:59;;;;;;;9.05;2.20;;;;;;;;;;2396601;56;21109;-77
2022/01/20 02:39:56;;;;;;;15.10;3.05;;;;;;;;;;2396291;56;21050;-77
2022/01/20 02:45:09;;;;;;;12.55;2.87;;;;;;;;;;2396009;56;20985;-78
2022/01/20 02:47:36;;;;;;;14.63;3.05;;;;;;;;;;2396391;56;21061;-79
2022/01/20 02:50:04;;;;;;;12.90;2.75;;;;;;;;;;2396095;56;21137;-79
2022/01/20 02:52:31;;;;;;;19.90;3.40;;;;;;;;;;2396670;56;21042;-78
2022/01/20 02:54:58;;;;;;;19.05;3.08;;;;;;;;;;2396428;56;21042;-79
2022/01/20 02:57:26;;;;;;;11.40;2.40;;;;;;;;;;2396174;56;21149;-79
2022/01/20 02:59:53;;;;;;;11.57;2.10;;;;;;;;;;2395672;56;21093;-78
2022/01/20 03:02:20;;;;;;;10.95;2.33;;;;;;;;;;2653694;52;21172;-78
2022/01/20 03:04:49;;;;;;;15.18;2.85;;;;;;;;;;2653845;52;21057;-77
2022/01/20 03:07:16;;;;;;;18.48;2.85;;;;;;;;;;2395785;56;21530;-77
2022/01/20 03:09:43;;;;;;;16.02;2.67;;;;;;;;;;2395415;56;21812;-78
2022/01/20 03:12:11;;;;;;;14.95;3.55;;;;;;;;;;2653810;52;21122;-78
2022/01/20 03:14:38;;;;;;;15.20;3.53;;;;;;;;;;2653730;52;21105;-78
2022/01/20 03:17:05;;;;;;;13.23;3.30;;;;;;;;;;2395632;56;21034;-78
2022/01/20 03:19:33;;;;;;;12.37;3.35;;;;;;;;;;2654083;52;21168;-77
2022/01/20 03:22:00;;;;;;;10.40;2.80;;;;;;;;;;2653998;52;21046;-78
2022/01/20 03:24:27;;;;;;;7.80;2.83;;;;;;;;;;2396194;56;21050;-79
2022/01/20 03:26:54;;;;;;;13.68;3.35;;;;;;;;;;2654263;52;21109;-79
2022/01/20 03:29:22;;;;;;;8.55;2.10;;;;;;;;;;2395357;56;21101;-78
2022/01/20 03:31:49;;;;;;;10.20;2.40;;;;;;;;;;2654069;52;21074;-79
2022/01/20 03:34:16;;;;;;;9.13;2.17;;;;;;;;;;2395673;56;21085;-78
2022/01/20 03:36:43;;;;;;;13.75;2.85;;;;;;;;;;2395989;56;21090;-78
2022/01/20 03:39:10;;;;;;;15.23;2.90;;;;;;;;;;2653214;52;21082;-78
2022/01/20 03:41:37;;;;;;;13.10;3.95;;;;;;;;;;2396129;56;21038;-77
2022/01/20 03:44:05;;;;;;;20.30;3.10;;;;;;;;;;2396033;56;21085;-77
2022/01/20 03:46:32;;;;;;;22.98;3.90;;;;;;;;;;2654502;52;21133;-78
2022/01/20 03:49:08;;;;;;;12.25;2.20;;;;;;;;;;2653352;52;22603;-78
2022/01/20 03:51:35;;;;;;;11.50;3.08;;;;;;;;;;2654400;52;21644;-78
2022/01/20 03:54:04;;;;;;;14.13;3.00;;;;;;;;;;2395287;56;21042;-77
2022/01/20 03:56:32;;;;;;;14.87;3.28;;;;;;;;;;2395981;56;21056;-77
2022/01/20 03:58:59;;;;;;;11.75;2.17;;;;;;;;;;2395410;56;21105;-78
2022/01/20 04:01:26;;;;;;;9.07;2.22;;;;;;;;;;2654494;52;21522;-78
2022/01/20 04:03:53;;;;;;;13.02;2.10;;;;;;;;;;2395798;56;21590;-78
2022/01/20 04:06:22;;;;;;;18.80;2.85;;;;;;;;;;2396227;56;21586;-77
2022/01/20 04:08:50;;;;;;;12.98;2.45;;;;;;;;;;2394863;56;21056;-78
2022/01/20 04:11:19;;;;;;;10.35;2.50;;;;;;;;;;2654529;52;21430;-78
2022/01/20 04:13:46;;;;;;;12.15;2.78;;;;;;;;;;2653852;52;21117;-78
2022/01/20 04:16:16;;;;;;;17.05;3.03;;;;;;;;;;2395926;56;21109;-77
2022/01/20 04:18:52;;;;;;;12.63;2.37;;;;;;;;;;2395861;56;21093;-77
2022/01/20 04:21:19;;;;;;;17.05;2.40;;;;;;;;;;2396295;56;21049;-78
2022/01/20 04:23:46;;;;;;;16.00;2.87;;;;;;;;;;2395717;56;21033;-78
2022/01/20 04:26:13;;;;;;;12.25;3.00;;;;;;;;;;2654467;52;21590;-78
2022/01/20 04:28:40;;;;;;;16.58;3.55;;;;;;;;;;2395991;56;21185;-77
2022/01/20 04:31:07;;;;;;;9.77;2.08;;;;;;;;;;2654336;52;21602;-78
2022/01/20 04:33:35;;;;;;;10.43;2.45;;;;;;;;;;2654214;52;21042;-77
2022/01/20 04:36:03;;;;;;;13.55;2.37;;;;;;;;;;2396432;56;21018;-78
2022/01/20 04:38:30;;;;;;;11.10;2.78;;;;;;;;;;2654179;52;21022;-77
2022/01/20 04:40:57;;;;;;;19.20;2.72;;;;;;;;;;2395945;56;21586;-78
2022/01/20 04:43:26;;;;;;;10.50;2.65;;;;;;;;;;2395779;56;21121;-78
2022/01/20 04:46:00;;;;;;;10.68;2.10;;;;;;;;;;2396552;56;21030;-78
2022/01/20 04:48:41;;;;;;;11.38;2.50;;;;;;;;;;2655470;52;21038;-79
2022/01/20 04:59:24;;;;;;;15.90;3.35;;;;;;;;;;2395649;56;21045;-77
2022/01/20 05:01:52;;;;;;;17.85;3.10;;;;;;;;;;2396167;56;21134;-77
2022/01/20 05:04:21;;;;;;;17.90;2.40;;;;;;;;;;2395791;56;21188;-77
2022/01/20 05:06:49;;;;;;;16.65;3.45;;;;;;;;;;2396147;56;21538;-77
2022/01/20 05:09:19;;;;;;;21.83;3.20;;;;;;;;;;2395719;56;21038;-77
2022/01/20 05:11:50;;;;;;;18.70;3.40;;;;;;;;;;2396081;56;21097;-76
2022/01/20 05:14:17;;;;;;;14.43;2.55;;;;;;;;;;2395655;56;21078;-76
2022/01/20 05:16:45;;;;;;;14.90;2.58;;;;;;;;;;2395488;56;21592;-76
2022/01/20 05:19:12;;;;;;;14.68;3.20;;;;;;;;;;2653998;52;21046;-76
2022/01/20 05:21:39;;;;;;;19.48;2.78;;;;;;;;;;2395793;56;21116;-76
2022/01/20 05:24:07;;;;;;;13.55;2.62;;;;;;;;;;2396218;56;21107;-76
2022/01/20 05:26:34;;;;;;;19.05;3.15;;;;;;;;;;2396147;56;21128;-76
2022/01/20 05:29:01;;;;;;;22.20;3.85;;;;;;;;;;2395941;56;21062;-76
2022/01/20 05:31:28;;;;;;;13.43;3.50;;;;;;;;;;2395961;56;21200;-77
2022/01/20 05:33:55;;;;;;;25.98;3.33;;;;;;;;;;2396374;56;21098;-77
2022/01/20 05:36:23;;;;;;;23.73;3.53;;;;;;;;;;2396242;56;21049;-77
2022/01/20 05:38:50;;;;;;;16.52;3.33;;;;;;;;;;2654202;52;21022;-77
2022/01/20 05:41:18;;;;;;;12.35;3.72;;;;;;;;;;2396201;56;22208;-77
2022/01/20 05:43:46;;;;;;;19.92;3.45;;;;;;;;;;2396112;56;21613;-77
2022/01/20 05:46:15;;;;;;;17.17;2.53;;;;;;;;;;2396306;56;21081;-77
2022/01/20 05:48:47;;;;;;;16.42;3.67;;;;;;;;;;2396072;56;21038;-75
2022/01/20 05:51:14;;;;;;;17.08;3.25;;;;;;;;;;2396165;56;21117;-77
2022/01/20 05:53:42;;;;;;;22.08;3.75;;;;;;;;;;2394880;56;21046;-77
2022/01/20 05:56:09;;;;;;;12.77;2.60;;;;;;;;;;2394784;56;21518;-77
2022/01/20 05:58:37;;;;;;;16.73;3.00;;;;;;;;;;2396233;56;21140;-77
2022/01/20 06:01:04;;;;;;;15.38;3.58;;;;;;;;;;2654505;52;21054;-78
2022/01/20 06:03:37;;;;;;;16.40;3.45;;;;;;;;;;2396300;56;21038;-78
2022/01/20 06:06:04;;;;;;;18.75;3.58;;;;;;;;;;2654483;52;21112;-77
2022/01/20 06:08:31;;;;;;;27.02;4.30;;;;;;;;;;2396734;56;21049;-78
2022/01/20 06:10:58;;;;;;;15.90;4.10;;;;;;;;;;2653801;52;21034;-76
2022/01/20 06:13:26;;;;;;;28.27;4.47;;;;;;;;;;2396159;56;21089;-76
2022/01/20 06:15:53;;;;;;;15.55;3.33;;;;;;;;;;2396095;56;21117;-77
2022/01/20 06:18:20;;;;;;;17.75;3.55;;;;;;;;;;2396037;56;21550;-77
2022/01/20 06:20:48;;;;;;;12.23;3.40;;;;;;;;;;2395746;56;21118;-77
2022/01/20 06:23:15;;;;;;;17.45;3.50;;;;;;;;;;2396315;56;21109;-77
2022/01/20 06:25:42;;;;;;;17.17;4.15;;;;;;;;;;2654282;52;21121;-77
2022/01/20 06:28:09;;;;;;;23.77;5.40;;;;;;;;;;2396155;56;21034;-77
2022/01/20 06:30:37;;;;;;;21.33;4.62;;;;;;;;;;2395622;56;21200;-77
2022/01/20 06:33:04;;;;;;;14.87;4.32;;;;;;;;;;2654335;52;21018;-77
2022/01/20 06:35:32;;;;;;;18.60;4.07;;;;;;;;;;2396015;56;21109;-77
2022/01/20 06:37:59;;;;;;;17.00;3.33;;;;;;;;;;2396320;56;21113;-77
2022/01/20 06:40:27;;;;;;;19.92;3.72;;;;;;;;;;2395825;56;21121;-77
2022/01/20 06:42:54;;;;;;;24.45;4.97;;;;;;;;;;2396024;56;21034;-77
2022/01/20 06:45:22;;;;;;;24.10;4.47;;;;;;;;;;2396021;56;21042;-77
2022/01/20 06:47:49;;;;;;;23.67;4.97;;;;;;;;;;2395976;56;21038;-77
2022/01/20 06:50:17;;;;;;;16.25;3.28;;;;;;;;;;2395800;56;21029;-77
2022/01/20 06:52:44;;;;;;;26.08;3.90;;;;;;;;;;2654041;52;21102;-77
2022/01/20 06:55:12;;;;;;;14.73;3.10;;;;;;;;;;2396082;56;21110;-76
2022/01/20 06:57:40;;;;;;;17.77;4.10;;;;;;;;;;2396262;56;21050;-77
2022/01/20 07:00:09;;;;;;;12.32;2.72;;;;;;;;;;2395865;56;21085;-77
2022/01/20 07:02:37;;;;;;;22.67;3.33;;;;;;;;;;2396080;56;21113;-77
2022/01/20 07:05:04;;;;;;;22.50;4.10;;;;;;;;;;2654313;52;21289;-78
2022/01/20 07:07:32;;;;;;;23.45;3.83;;;;;;;;;;2396430;56;21105;-77
2022/01/20 07:09:59;;;;;;;16.25;3.05;;;;;;;;;;2395908;56;21038;-78
2022/01/20 07:12:26;;;;;;;21.75;4.03;;;;;;;;;;2654443;52;21130;-77
2022/01/20 07:14:53;;;;;;;19.90;3.25;;;;;;;;;;2396157;56;21109;-76
2022/01/20 07:17:20;;;;;;;25.80;3.60;;;;;;;;;;2396089;56;21022;-76
2022/01/20 07:19:47;;;;;;;20.17;4.03;;;;;;;;;;2395270;56;21597;-77
2022/01/20 07:22:15;;;;;;;23.83;4.32;;;;;;;;;;2395991;56;21034;-76
2022/01/20 07:24:42;;;;;;;20.88;3.65;;;;;;;;;;2396114;56;21029;-77
2022/01/20 07:27:09;;;;;;;16.33;2.87;;;;;;;;;;2395896;56;21541;-77
2022/01/20 07:29:36;;;;;;;19.35;2.78;;;;;;;;;;2395781;56;21058;-76
2022/01/20 07:32:06;;;;;;;17.77;3.45;;;;;;;;;;2395883;56;21120;-76
2022/01/20 07:34:34;;;;;;;18.33;3.72;;;;;;;;;;2395861;56;21030;-78
2022/01/20 07:37:02;;;;;;;20.00;2.78;;;;;;;;;;2396506;56;21558;-77
2022/01/20 07:39:29;;;;;;;28.87;4.37;;;;;;;;;;2654918;52;21030;-78
2022/01/20 07:41:56;;;;;;;30.12;4.62;;;;;;;;;;2395853;56;21308;-77
2022/01/20 07:44:23;;;;;;;12.40;2.53;;;;;;;;;;2396171;56;21121;-77
2022/01/20 07:46:50;;;;;;;16.70;2.60;;;;;;;;;;2396422;56;21304;-77
2022/01/20 07:49:17;;;;;;;19.23;3.03;;;;;;;;;;2396062;56;21034;-78
2022/01/20 07:51:45;;;;;;;16.52;2.55;;;;;;;;;;2396010;56;21609;-77
2022/01/20 07:54:12;;;;;;;22.15;3.42;;;;;;;;;;2653703;52;21062;-78
2022/01/20 07:56:39;;;;;;;19.00;3.25;;;;;;;;;;2653510;52;21090;-77
2022/01/20 07:59:08;;;;;;;18.00;2.92;;;;;;;;;;2396242;56;21038;-77
2022/01/20 08:01:35;;;;;;;17.65;3.35;;;;;;;;;;2654208;52;21066;-78
2022/01/20 08:04:02;;;;;;;16.12;2.85;;;;;;;;;;2654803;52;21582;-77
2022/01/20 08:06:29;;;;;;;14.35;3.65;;;;;;;;;;2396553;56;21184;-77
2022/01/20 08:08:57;;;;;;;19.73;3.87;;;;;;;;;;2396159;56;21053;-77
2022/01/20 08:11:24;;;;;;;20.67;3.75;;;;;;;;;;2396385;56;21320;-78
2022/01/20 08:13:51;;;;;;;22.13;4.00;;;;;;;;;;2654794;52;21014;-78
2022/01/20 08:16:18;;;;;;;20.55;3.72;;;;;;;;;;2396560;56;21039;-77
2022/01/20 08:18:45;;;;;;;11.65;3.53;;;;;;;;;;2396215;56;21140;-76
2022/01/20 08:21:12;;;;;;;15.45;3.25;;;;;;;;;;2396401;56;21174;-77
2022/01/20 08:23:39;;;;;;;17.95;3.90;;;;;;;;;;2396439;56;21034;-78
2022/01/20 08:26:07;;;;;;;22.10;3.53;;;;;;;;;;2396393;56;21037;-77
2022/01/20 08:28:34;;;;;;;22.80;4.30;;;;;;;;;;2654448;52;21102;-77
2022/01/20 08:31:01;;;;;;;12.60;3.40;;;;;;;;;;2395511;56;21105;-78
2022/01/20 08:33:28;;;;;;;17.77;3.62;;;;;;;;;;2654884;52;21563;-76
2022/01/20 08:35:55;;;;;;;26.35;4.28;;;;;;;;;;2396691;56;21628;-77
2022/01/20 08:38:22;;;;;;;27.52;5.15;;;;;;;;;;2654640;52;21645;-80
2022/01/20 08:40:50;;;;;;;31.23;5.47;;;;;;;;;;2654161;52;21625;-77
2022/01/20 08:43:17;;;;;;;17.90;4.50;;;;;;;;;;2653767;52;21038;-78
2022/01/20 08:45:46;;;;;;;10.98;2.70;;;;;;;;;;2653263;51;21110;-77
2022/01/20 08:48:13;;;;;;;24.45;4.40;;;;;;;;;;2655137;52;21106;-78
2022/01/20 08:50:41;;;;;;;17.83;3.70;;;;;;;;;;2396194;56;21704;-77
2022/01/20 08:53:09;;;;;;;23.65;3.15;;;;;;;;;;2396566;56;21037;-78
2022/01/20 08:55:37;;;;;;;25.00;3.87;;;;;;;;;;2396523;56;21145;-78
2022/01/20 08:58:05;;;;;;;20.35;3.75;;;;;;;;;;2396661;56;21046;-78
2022/01/20 09:00:34;;;;;;;20.65;4.25;;;;;;;;;;2396105;56;22194;-78
2022/01/20 09:03:01;;;;;;;18.60;4.28;;;;;;;;;;2654834;52;21034;-78
2022/01/20 09:05:28;;;;;;;17.35;3.55;;;;;;;;;;2395949;56;21113;-78
2022/01/20 09:07:55;;;;;;;14.05;3.28;;;;;;;;;;2396459;56;21113;-77
2022/01/20 09:10:22;;;;;;;19.05;3.90;;;;;;;;;;2396711;56;21030;-78
2022/01/20 09:15:37;;;;;;;23.17;4.30;;;;;;;;;;2396262;56;21037;-78
2022/01/20 09:18:06;;;;;;;20.27;3.30;;;;;;;;;;2396436;56;21038;-77
2022/01/20 09:20:34;;;;;;;22.40;3.75;;;;;;;;;;2396345;56;21530;-77
2022/01/20 09:23:01;;;;;;;23.45;3.50;;;;;;;;;;2396508;56;21117;-77
2022/01/20 09:25:28;;;;;;;19.05;3.83;;;;;;;;;;2654480;52;21105;-78
2022/01/20 09:27:56;;;;;;;25.50;5.18;;;;;;;;;;2396508;56;21541;-77
2022/01/20 09:30:23;;;;;;;12.75;4.22;;;;;;;;;;2396024;56;21050;-78
2022/01/20 09:33:00;;;;;;;16.73;3.28;;;;;;;;;;2654749;52;21085;-78
2022/01/20 09:35:30;;;;;;;13.93;3.10;;;;;;;;;;2654381;52;21045;-78
2022/01/20 09:37:57;;;;;;;17.33;3.00;;;;;;;;;;2396603;56;21049;-79
2022/01/20 09:40:24;;;;;;;21.30;3.55;;;;;;;;;;2654574;52;21626;-78
2022/01/20 09:42:51;;;;;;;17.25;3.28;;;;;;;;;;2396013;56;21038;-77
2022/01/20 09:45:19;;;;;;;14.50;2.67;;;;;;;;;;2654566;51;21033;-77
2022/01/20 09:47:46;;;;;;;17.30;2.70;;;;;;;;;;2654636;52;21042;-77
2022/01/20 09:50:14;;;;;;;18.08;3.55;;;;;;;;;;2395948;56;21158;-78
2022/01/20 09:52:41;;;;;;;11.35;3.10;;;;;;;;;;2396366;56;21034;-78
2022/01/20 09:55:09;;;;;;;16.37;2.70;;;;;;;;;;2395959;56;21594;-77
2022/01/20 09:57:37;;;;;;;8.32;2.42;;;;;;;;;;2396002;56;21125;-77
2022/01/20 10:00:07;;;;;;;19.52;3.17;;;;;;;;;;2654268;52;21094;-78
2022/01/20 10:02:35;;;;;;;17.90;3.67;;;;;;;;;;2396135;56;21308;-77
2022/01/20 10:05:02;;;;;;;15.13;2.95;;;;;;;;;;2395801;56;21148;-76
2022/01/20 10:07:33;;;;;;;17.48;2.80;;;;;;;;;;2395935;56;21030;-76
2022/01/20 10:10:01;;;;;;;16.33;3.08;;;;;;;;;;2653024;52;21201;-75
2022/01/20 10:12:29;;;;;;;18.55;3.17;;;;;;;;;;2654605;52;21117;-76
2022/01/20 10:14:57;;;;;;;14.40;2.87;;;;;;;;;;2654450;52;21117;-76
2022/01/20 10:17:25;;;;;;;15.35;3.15;;;;;;;;;;2396149;56;21062;-76
2022/01/20 10:19:53;;;;;;;10.40;2.80;;;;;;;;;;2654245;52;21022;-76
2022/01/20 10:22:23;;;;;;;9.98;2.72;;;;;;;;;;2396070;56;21043;-77
2022/01/20 10:25:02;;;;;;;16.73;3.12;;;;;;;;;;2396385;56;21076;-76
2022/01/20 10:27:29;;;;;;;10.57;3.00;;;;;;;;;;2395917;56;21057;-76
2022/01/20 10:29:57;;;;;;;13.80;2.67;;;;;;;;;;2395814;56;21301;-77
2022/01/20 10:32:25;;;;;;;20.45;3.72;;;;;;;;;;2396260;56;21324;-77
2022/01/20 10:35:02;;;;;;;10.48;2.33;;;;;;;;;;2396228;56;21090;-76
2022/01/20 10:37:29;;;;;;;15.25;2.40;;;;;;;;;;2395811;56;21049;-76
2022/01/20 10:40:16;;;;;;;9.07;2.45;;;;;;;;;;2395986;56;21045;-75
2022/01/20 10:42:45;;;;;;;9.52;2.33;;;;;;;;;;2337304;57;21564;-83
2022/01/20 10:45:19;;;;;;;13.98;2.40;;;;;;;;;;2337443;57;21093;-81
2022/01/20 10:47:49;;;;;;;13.50;2.12;;;;;;;;;;2337599;57;21093;-81
2022/01/20 10:50:17;;;;;;;11.38;2.20;;;;;;;;;;2336960;57;21093;-81
2022/01/20 10:52:45;;;;;;;13.15;2.72;;;;;;;;;;2339753;53;21038;-81
2022/01/20 10:55:24;;;;;;;8.88;2.70;;;;;;;;;;2336161;57;21029;-81
2022/01/20 10:57:52;;;;;;;11.10;2.42;;;;;;;;;;2442252;53;21104;-81
2022/01/20 11:00:20;;;;;;;10.82;1.90;;;;;;;;;;2379646;53;21534;-81
2022/01/20 11:02:51;;;;;;;12.82;2.53;;;;;;;;;;2335986;57;21097;-82
2022/01/20 11:05:19;;;;;;;15.50;2.37;;;;;;;;;;2336296;57;21081;-82
2022/01/20 11:07:46;;;;;;;9.70;2.95;;;;;;;;;;2336192;57;21101;-80
2022/01/20 11:10:13;;;;;;;10.48;2.58;;;;;;;;;;2394858;53;21110;-81
2022/01/20 11:12:42;;;;;;;19.70;3.58;;;;;;;;;;2370730;53;21025;-81
2022/01/20 11:15:12;;;;;;;6.55;2.40;;;;;;;;;;2335893;57;21049;-81
2022/01/20 11:17:40;;;;;;;8.05;1.87;;;;;;;;;;2335862;57;21625;-82
2022/01/20 11:20:09;;;;;;;14.27;2.83;;;;;;;;;;2343853;53;21022;-81
2022/01/20 11:22:37;;;;;;;16.30;3.50;;;;;;;;;;2335912;57;21564;-82
2022/01/20 11:25:05;;;;;;;17.62;2.95;;;;;;;;;;2335933;57;21030;-82
2022/01/20 11:27:52;;;;;;;11.00;2.60;;;;;;;;;;2335725;57;21093;-81
2022/01/20 11:30:21;;;;;;;12.02;2.80;;;;;;;;;;2347273;57;21673;-76
2022/01/20 11:33:03;;;;;;;9.50;2.30;;;;;;;;;;2361526;53;21064;-75
2022/01/20 11:35:37;;;;;;;13.07;2.15;;;;;;;;;;2373019;53;21080;-75
2022/01/20 11:38:05;;;;;;;9.55;2.80;;;;;;;;;;2392747;53;21131;-75
2022/01/20 11:40:32;;;;;;;20.55;3.53;;;;;;;;;;2369790;53;21044;-75
2022/01/20 11:43:03;;;;;;;14.30;2.62;;;;;;;;;;2359439;57;21135;-75
2022/01/20 11:45:32;;;;;;;11.45;2.33;;;;;;;;;;2359880;57;21033;-75
2022/01/20 11:47:59;;;;;;;15.38;2.20;;;;;;;;;;2359874;57;21053;-75
2022/01/20 11:50:27;;;;;;;14.45;2.47;;;;;;;;;;2359479;57;21582;-75
2022/01/20 11:52:54;;;;;;;12.35;2.50;;;;;;;;;;2359903;57;21056;-75
2022/01/20 11:55:21;;;;;;;13.95;2.95;;;;;;;;;;2359386;57;21060;-75
2022/01/20 11:57:50;;;;;;;7.95;2.22;;;;;;;;;;2360034;57;21132;-75
2022/01/20 12:00:19;;;;;;;17.15;2.58;;;;;;;;;;2359693;57;21115;-75
2022/01/20 12:02:46;;;;;;;9.13;2.17;;;;;;;;;;2360090;57;21040;-75
2022/01/20 12:05:18;;;;;;;11.65;2.30;;;;;;;;;;2359958;57;21156;-75
2022/01/20 12:07:46;;;;;;;9.85;2.30;;;;;;;;;;2522070;53;21113;-75
2022/01/20 12:10:15;;;;;;;9.98;2.80;;;;;;;;;;2359751;57;21223;-75
2022/01/20 12:12:42;;;;;;;9.77;2.28;;;;;;;;;;2360069;57;21045;-75
2022/01/20 12:15:14;;;;;;;10.32;2.55;;;;;;;;;;2360039;57;21176;-75
2022/01/20 12:17:48;;;;;;;9.50;2.37;;;;;;;;;;2359195;57;21123;-75
2022/01/20 12:20:15;;;;;;;13.85;2.37;;;;;;;;;;2376551;53;21519;-75
2022/01/20 12:22:43;;;;;;;10.13;1.80;;;;;;;;;;2359933;57;21107;-75
2022/01/20 12:25:17;;;;;;;9.48;2.45;;;;;;;;;;2359987;57;21045;-75
2022/01/20 12:27:44;;;;;;;16.08;2.92;;;;;;;;;;2360087;57;21037;-75
2022/01/20 12:30:22;;;;;;;10.48;2.37;;;;;;;;;;2359380;57;21036;-75
2022/01/20 12:32:56;;;;;;;9.85;2.37;;;;;;;;;;2360196;57;21060;-75
2022/01/20 12:35:24;;;;;;;6.62;2.15;;;;;;;;;;2359733;57;21092;-75
2022/01/20 12:37:51;;;;;;;8.43;1.80;;;;;;;;;;2360130;57;21619;-75
2022/01/20 12:40:20;;;;;;;6.60;2.08;;;;;;;;;;2359058;57;21040;-75
2022/01/20 12:42:48;;;;;;;14.55;2.70;;;;;;;;;;2360096;57;21115;-75
2022/01/20 12:48:13;;;;;;;7.82;1.87;;;;;;;;;;2360204;53;21060;-75
2022/01/20 12:50:49;;;;;;;9.00;1.60;;;;;;;;;;2359090;57;21040;-75
2022/01/20 12:53:17;;;;;;;6.93;1.98;;;;;;;;;;2360011;57;21029;-75
2022/01/20 12:55:51;;;;;;;15.15;3.25;;;;;;;;;;2360143;57;21069;-75
2022/01/20 12:58:19;;;;;;;11.75;2.58;;;;;;;;;;2359388;57;21057;-75
2022/01/20 13:00:56;;;;;;;9.10;2.75;;;;;;;;;;2489670;52;22231;-75
2022/01/20 13:03:34;;;;;;;12.70;2.90;;;;;;;;;;2360125;57;21104;-75
2022/01/20 13:06:01;;;;;;;15.18;2.78;;;;;;;;;;2360068;57;21056;-76
2022/01/20 13:08:33;;;;;;;9.90;2.42;;;;;;;;;;2359956;57;21105;-75
2022/01/20 13:11:05;;;;;;;13.05;2.15;;;;;;;;;;2359653;57;21100;-75
2022/01/20 13:13:32;;;;;;;14.90;2.70;;;;;;;;;;2360183;57;21052;-76
2022/01/20 13:16:09;;;;;;;12.85;3.12;;;;;;;;;;2610483;53;21045;-76
2022/01/20 13:18:37;;;;;;;16.62;2.42;;;;;;;;;;2456298;53;21031;-75
2022/01/20 13:21:07;;;;;;;17.10;3.55;;;;;;;;;;2359429;57;21045;-75
2022/01/20 13:23:56;;;;;;;10.63;2.20;;;;;;;;;;2359864;57;21136;-76
2022/01/20 13:26:23;;;;;;;5.00;1.73;;;;;;;;;;2426898;53;21033;-76
2022/01/20 13:28:58;;;;;;;7.97;1.90;;;;;;;;;;2359467;57;21037;-75
2022/01/20 13:31:25;;;;;;;9.75;2.00;;;;;;;;;;2359557;57;21595;-75
2022/01/20 13:33:52;;;;;;;18.02;2.40;;;;;;;;;;2360164;57;21115;-75
2022/01/20 13:36:21;;;;;;;11.75;2.15;;;;;;;;;;2360057;57;21025;-76
2022/01/20 13:38:56;;;;;;;8.57;2.45;;;;;;;;;;2360070;57;21124;-76
2022/01/20 13:41:28;;;;;;;13.18;1.83;;;;;;;;;;2359837;57;21056;-75
2022/01/20 13:46:42;;;;;;;8.75;1.60;;;;;;;;;;2360112;53;21039;-75
2022/01/20 13:49:10;;;;;;;10.68;2.00;;;;;;;;;;2359702;57;21060;-75
2022/01/20 13:51:38;;;;;;;10.10;2.00;;;;;;;;;;2359755;57;21068;-75
2022/01/20 13:54:05;;;;;;;7.55;1.73;;;;;;;;;;2360081;57;21598;-75
2022/01/20 13:56:32;;;;;;;10.68;2.08;;;;;;;;;;2359895;57;21052;-75
2022/01/20 13:59:03;;;;;;;7.18;1.98;;;;;;;;;;2359882;57;21052;-75
2022/01/20 14:01:31;;;;;;;12.05;2.20;;;;;;;;;;2359497;57;21100;-75
2022/01/20 14:03:58;;;;;;;6.55;1.87;;;;;;;;;;2360063;57;21041;-76
2022/01/20 14:06:26;;;;;;;10.57;3.80;;;;;;;;;;2359962;57;21131;-76
2022/01/20 14:08:53;;;;;;;7.32;1.87;;;;;;;;;;2359688;57;21041;-75
2022/01/20 14:11:21;;;;;;;7.95;2.25;;;;;;;;;;2359877;57;21306;-75
2022/01/20 14:13:48;;;;;;;8.93;1.98;;;;;;;;;;2360941;57;21578;-80
2022/01/20 14:16:15;;;;;;;8.48;2.22;;;;;;;;;;2361333;57;21127;-80
2022/01/20 14:18:44;;;;;;;10.48;2.20;;;;;;;;;;2359871;57;21048;-76
2022/01/20 14:21:12;;;;;;;7.55;1.83;;;;;;;;;;2359840;57;21122;-75
2022/01/20 14:23:40;;;;;;;9.65;1.98;;;;;;;;;;2480524;53;21056;-76
2022/01/20 14:26:11;;;;;;;8.98;2.15;;;;;;;;;;2359888;57;21056;-76
2022/01/20 14:28:39;;;;;;;11.43;2.28;;;;;;;;;;2359838;57;21049;-76
2022/01/20 14:31:06;;;;;;;7.85;2.15;;;;;;;;;;2359567;57;21052;-76
2022/01/20 14:33:33;;;;;;;11.27;2.00;;;;;;;;;;2359993;57;21653;-76
2022/01/20 14:36:00;;;;;;;9.30;3.90;;;;;;;;;;2359798;57;21056;-76
2022/01/20 14:38:28;;;;;;;12.82;2.75;;;;;;;;;;2378940;53;21551;-76
2022/01/20 14:40:56;;;;;;;7.85;2.20;;;;;;;;;;2359368;57;21100;-76
2022/01/20 14:43:23;;;;;;;6.60;2.12;;;;;;;;;;2360165;57;21096;-76
2022/01/20 14:45:51;;;;;;;14.25;3.25;;;;;;;;;;2576293;53;21302;-76
2022/01/20 14:48:18;;;;;;;8.18;2.33;;;;;;;;;;2359298;57;21122;-76
2022/01/20 14:50:45;;;;;;;11.48;1.90;;;;;;;;;;2359405;57;21060;-76
2022/01/20 14:53:13;;;;;;;14.48;2.00;;;;;;;;;;2462639;53;21104;-76
2022/01/20 14:55:40;;;;;;;9.23;3.60;;;;;;;;;;2359603;57;21052;-76
2022/01/20 14:58:07;;;;;;;10.60;2.25;;;;;;;;;;2359562;57;21495;-76
2022/01/20 15:00:35;;;;;;;4.03;1.67;;;;;;;;;;2383047;53;21037;-76
2022/01/20 15:03:02;;;;;;;7.72;2.25;;;;;;;;;;2418262;53;21088;-75
2022/01/20 15:05:31;;;;;;;9.00;2.20;;;;;;;;;;2359282;57;21128;-75
2022/01/20 15:07:58;;;;;;;7.97;2.17;;;;;;;;;;2359603;53;21116;-76
2022/01/20 15:10:26;;;;;;;9.07;1.98;;;;;;;;;;2358743;57;21156;-76
2022/01/20 15:13:00;;;;;;;7.22;3.47;;;;;;;;;;2362454;53;21112;-76
2022/01/20 15:15:27;;;;;;;6.20;1.65;;;;;;;;;;2359056;57;21587;-76
2022/01/20 15:17:55;;;;;;;8.40;1.98;;;;;;;;;;2359593;57;21049;-76
2022/01/20 15:20:22;;;;;;;12.15;1.77;;;;;;;;;;2363488;53;21044;-76
2022/01/20 15:22:50;;;;;;;10.10;1.70;;;;;;;;;;2360242;53;21718;-76
2022/01/20 15:25:17;;;;;;;5.15;1.52;;;;;;;;;;2361372;53;21044;-76
2022/01/20 15:27:44;;;;;;;9.90;2.15;;;;;;;;;;2359085;57;21052;-76
2022/01/20 15:30:12;;;;;;;8.25;1.90;;;;;;;;;;2358996;57;21456;-76
2022/01/20 15:32:39;;;;;;;9.20;1.85;;;;;;;;;;2359870;57;21596;-76
2022/01/20 15:35:07;;;;;;;10.48;3.25;;;;;;;;;;2359672;57;21064;-76